createdAt,value
2022-10-13T00:00:03.827Z,9.21
2022-10-13T00:03:01.307Z,9.16
2022-10-13T00:05:31.016Z,9.12
2022-10-13T00:08:01.130Z,9.08
2022-10-13T00:10:35.448Z,9.08
2022-10-13T00:13:04.092Z,9.07
2022-10-13T00:15:32.694Z,9.06
2022-10-13T00:18:01.282Z,9.05
2022-10-13T00:20:30.001Z,9.04
2022-10-13T00:22:58.639Z,9.03
2022-10-13T00:25:27.455Z,9.01
2022-10-13T00:27:56.069Z,8.97
2022-10-13T00:30:25.183Z,8.93
2022-10-13T00:32:53.923Z,8.92
2022-10-13T00:35:22.626Z,8.89
2022-10-13T00:37:52.984Z,8.86
2022-10-13T00:40:21.866Z,8.84
2022-10-13T00:42:50.458Z,8.82
2022-10-13T00:45:24.363Z,8.78
2022-10-13T00:47:56.788Z,8.76
2022-10-13T00:50:31.742Z,8.73
2022-10-13T00:53:01.414Z,8.71
2022-10-13T00:55:34.383Z,8.70
2022-10-13T00:58:06.153Z,8.69
2022-10-13T01:00:35.418Z,8.67
2022-10-13T01:03:04.344Z,8.67
2022-10-13T01:05:34.377Z,8.65
2022-10-13T01:08:03.559Z,8.65
2022-10-13T01:10:42.721Z,8.63
2022-10-13T01:13:19.208Z,8.60
2022-10-13T01:15:58.378Z,8.57
2022-10-13T01:18:37.562Z,8.53
2022-10-13T01:21:15.976Z,8.46
2022-10-13T01:24:21.252Z,8.40
2022-10-13T01:27:05.043Z,8.32
2022-10-13T01:30:12.940Z,8.27
2022-10-13T01:32:59.852Z,8.20
2022-10-13T01:35:41.227Z,8.16
2022-10-13T01:38:22.451Z,8.11
2022-10-13T01:41:00.718Z,8.07
2022-10-13T01:43:36.091Z,8.04
2022-10-13T01:46:09.472Z,8.00
2022-10-13T01:48:40.202Z,7.98
2022-10-13T01:51:13.419Z,7.95
2022-10-13T01:53:44.106Z,7.93
2022-10-13T01:56:13.121Z,7.89
2022-10-13T01:58:43.058Z,7.86
2022-10-13T02:01:42.467Z,7.84
2022-10-13T02:04:23.376Z,7.80
2022-10-13T02:06:57.962Z,7.78
2022-10-13T02:09:33.302Z,7.75
2022-10-13T02:12:08.429Z,7.72
2022-10-13T02:14:41.013Z,7.71
2022-10-13T02:17:10.862Z,7.69
2022-10-13T02:19:40.693Z,7.68
2022-10-13T02:22:12.287Z,7.65
2022-10-13T02:24:41.345Z,7.64
2022-10-13T02:27:10.679Z,7.62
2022-10-13T02:29:51.397Z,7.61
2022-10-13T02:32:21.799Z,7.58
2022-10-13T02:34:50.993Z,7.56
2022-10-13T02:37:19.635Z,7.55
2022-10-13T02:39:48.320Z,7.55
2022-10-13T02:42:19.204Z,7.54
2022-10-13T02:44:48.069Z,7.54
2022-10-13T02:47:16.791Z,7.53
2022-10-13T02:49:45.378Z,7.53
2022-10-13T02:52:14.383Z,7.53
2022-10-13T02:54:43.857Z,7.54
2022-10-13T02:57:12.504Z,7.55
2022-10-13T02:59:45.468Z,7.57
2022-10-13T03:02:14.256Z,7.59
2022-10-13T03:04:42.980Z,7.61
2022-10-13T03:07:11.615Z,7.63
2022-10-13T03:09:40.215Z,7.65
2022-10-13T03:12:09.367Z,7.67
2022-10-13T03:14:38.722Z,7.69
2022-10-13T03:17:12.479Z,7.71
2022-10-13T03:19:42.114Z,7.72
2022-10-13T03:22:14.962Z,7.73
2022-10-13T03:24:44.222Z,7.74
2022-10-13T03:27:13.089Z,7.75
2022-10-13T03:29:41.650Z,7.76
2022-10-13T03:32:10.312Z,7.77
2022-10-13T03:34:39.024Z,7.77
2022-10-13T03:37:07.622Z,7.77
2022-10-13T03:39:43.347Z,7.77
2022-10-13T03:42:12.743Z,7.77
2022-10-13T03:44:41.398Z,7.76
2022-10-13T03:47:10.074Z,7.76
2022-10-13T03:49:39.195Z,7.75
2022-10-13T03:52:07.922Z,7.74
2022-10-13T03:54:36.806Z,7.73
2022-10-13T03:57:07.872Z,7.71
2022-10-13T03:59:37.123Z,7.70
2022-10-13T04:02:06.457Z,7.68
2022-10-13T04:04:37.400Z,7.66
2022-10-13T04:07:06.648Z,7.64
2022-10-13T04:09:35.316Z,7.60
2022-10-13T04:12:04.267Z,7.59
2022-10-13T04:14:33.017Z,7.55
2022-10-13T04:17:05.888Z,7.51
2022-10-13T04:19:34.614Z,7.49
2022-10-13T04:22:07.212Z,7.44
2022-10-13T04:24:36.770Z,7.41
2022-10-13T04:27:05.514Z,7.38
2022-10-13T04:29:34.166Z,7.34
2022-10-13T04:32:02.952Z,7.32
2022-10-13T04:34:31.628Z,7.28
2022-10-13T04:37:00.509Z,7.24
2022-10-13T04:39:29.361Z,7.19
2022-10-13T04:41:58.727Z,7.14
2022-10-13T04:44:27.496Z,7.09
2022-10-13T04:46:56.390Z,7.05
2022-10-13T04:49:25.987Z,7.02
2022-10-13T04:51:54.850Z,6.99
2022-10-13T04:54:23.575Z,6.98
2022-10-13T04:56:52.163Z,6.96
2022-10-13T04:59:20.759Z,6.95
2022-10-13T05:01:49.714Z,6.95
2022-10-13T05:04:18.441Z,6.95
2022-10-13T05:07:15.889Z,6.95
2022-10-13T05:09:36.005Z,6.95
2022-10-13T05:12:09.383Z,6.95
2022-10-13T05:14:37.970Z,6.96
2022-10-13T05:17:09.416Z,6.97
2022-10-13T05:19:38.235Z,7.02
2022-10-13T05:22:06.885Z,7.09
2022-10-13T05:24:39.326Z,7.17
2022-10-13T05:27:11.624Z,7.28
2022-10-13T05:29:41.554Z,7.41
2022-10-13T05:32:10.203Z,7.54
2022-10-13T05:34:38.862Z,7.67
2022-10-13T05:37:07.637Z,7.80
2022-10-13T05:39:36.486Z,7.95
2022-10-13T05:42:05.443Z,8.09
2022-10-13T05:44:35.692Z,8.25
2022-10-13T05:47:07.517Z,8.41
2022-10-13T05:49:39.068Z,8.58
2022-10-13T05:52:10.525Z,8.76
2022-10-13T05:54:41.895Z,8.91
2022-10-13T05:57:15.738Z,9.07
2022-10-13T05:59:49.847Z,9.26
2022-10-13T06:02:22.741Z,9.44
2022-10-13T06:04:55.488Z,9.60
2022-10-13T06:07:24.903Z,9.79
2022-10-13T06:09:53.858Z,10.01
2022-10-13T06:12:22.682Z,10.25
2022-10-13T06:14:51.907Z,10.52
2022-10-13T06:17:20.485Z,10.85
2022-10-13T06:19:49.106Z,11.20
2022-10-13T06:22:18.136Z,11.56
2022-10-13T06:24:47.066Z,12.02
2022-10-13T06:27:15.826Z,12.55
2022-10-13T06:29:45.694Z,13.01
2022-10-13T06:32:14.355Z,13.39
2022-10-13T06:34:43.236Z,13.74
2022-10-13T06:37:12.071Z,14.28
2022-10-13T06:39:41.449Z,15.00
2022-10-13T06:42:10.187Z,15.80
2022-10-13T06:44:44.046Z,16.72
2022-10-13T06:47:12.811Z,17.49
2022-10-13T06:49:41.713Z,18.13
2022-10-13T06:52:13.721Z,18.76
2022-10-13T06:54:42.524Z,19.33
2022-10-13T06:57:11.763Z,19.85
2022-10-13T06:59:40.394Z,20.25
2022-10-13T07:02:10.777Z,20.49
2022-10-13T07:04:39.509Z,20.65
2022-10-13T07:07:08.262Z,20.93
2022-10-13T07:09:37.224Z,21.22
2022-10-13T07:12:07.488Z,21.38
2022-10-13T07:14:38.199Z,21.60
2022-10-13T07:17:09.077Z,21.92
2022-10-13T07:19:37.772Z,22.20
2022-10-13T07:22:06.749Z,22.33
2022-10-13T07:24:35.630Z,22.47
2022-10-13T07:27:07.823Z,22.69
2022-10-13T07:29:36.983Z,22.80
2022-10-13T07:32:06.663Z,22.84
2022-10-13T07:34:35.312Z,22.75
2022-10-13T07:37:04.453Z,22.80
2022-10-13T07:39:34.091Z,22.84
2022-10-13T07:42:02.742Z,22.82
2022-10-13T07:44:32.009Z,22.82
2022-10-13T07:47:00.574Z,22.80
2022-10-13T07:49:29.390Z,22.81
2022-10-13T07:51:59.332Z,22.80
2022-10-13T07:54:28.668Z,22.76
2022-10-13T07:56:57.629Z,22.67
2022-10-13T07:59:26.644Z,22.65
2022-10-13T08:01:55.620Z,22.76
2022-10-13T08:04:24.940Z,22.83
2022-10-13T08:06:53.681Z,22.76
2022-10-13T08:09:22.298Z,22.75
2022-10-13T08:11:51.393Z,22.81
2022-10-13T08:14:20.697Z,22.96
2022-10-13T08:16:52.866Z,23.08
2022-10-13T08:19:23.201Z,23.12
2022-10-13T08:22:00.274Z,23.04
2022-10-13T08:24:30.233Z,23.14
2022-10-13T08:26:59.042Z,23.25
2022-10-13T08:29:28.216Z,23.45
2022-10-13T08:31:57.362Z,23.68
2022-10-13T08:34:26.187Z,23.84
2022-10-13T08:36:56.847Z,23.96
2022-10-13T08:39:26.180Z,24.02
2022-10-13T08:41:57.252Z,23.90
2022-10-13T08:47:42.341Z,23.70
2022-10-13T08:50:15.120Z,23.64
2022-10-13T08:52:49.341Z,23.61
2022-10-13T08:55:27.052Z,23.54
2022-10-13T08:57:55.719Z,23.37
2022-10-13T09:00:29.645Z,23.27
2022-10-13T09:03:14.376Z,23.08
2022-10-13T09:05:49.700Z,22.66
2022-10-13T09:08:21.287Z,22.31
2022-10-13T09:10:51.103Z,21.98
2022-10-13T09:13:20.938Z,21.81
2022-10-13T09:15:50.651Z,21.50
2022-10-13T09:18:27.009Z,21.01
2022-10-13T09:21:11.409Z,20.64
2022-10-13T09:23:41.979Z,20.32
2022-10-13T09:26:19.027Z,20.18
2022-10-13T09:28:48.693Z,20.02
2022-10-13T09:31:21.434Z,19.89
2022-10-13T09:33:59.189Z,19.80
2022-10-13T09:36:28.549Z,19.68
2022-10-13T09:39:12.300Z,19.81
2022-10-13T09:41:43.389Z,19.86
2022-10-13T09:44:16.202Z,19.87
2022-10-13T09:46:51.637Z,19.96
2022-10-13T09:49:31.217Z,19.98
2022-10-13T09:52:02.954Z,20.00
2022-10-13T09:54:40.958Z,19.81
2022-10-13T09:57:17.161Z,19.57
2022-10-13T09:59:50.133Z,19.35
2022-10-13T10:02:28.443Z,19.12
2022-10-13T10:05:00.882Z,18.82
2022-10-13T10:07:32.783Z,18.55
2022-10-13T10:10:06.474Z,18.37
2022-10-13T10:12:40.636Z,18.31
2022-10-13T10:15:20.838Z,18.22
2022-10-13T10:17:55.634Z,18.03
2022-10-13T10:20:46.728Z,17.87
2022-10-13T10:23:25.667Z,17.76
2022-10-13T10:26:00.094Z,17.74
2022-10-13T10:28:51.498Z,17.78
2022-10-13T10:31:32.751Z,17.67
2022-10-13T10:34:16.534Z,17.43
2022-10-13T10:36:53.667Z,17.29
2022-10-13T10:39:29.527Z,17.15
2022-10-13T10:42:03.637Z,17.00
2022-10-13T10:44:34.917Z,16.90
2022-10-13T10:47:11.741Z,16.77
2022-10-13T10:49:40.719Z,16.64
2022-10-13T10:52:27.991Z,16.68
2022-10-13T10:55:14.876Z,16.77
2022-10-13T10:57:58.411Z,16.76
2022-10-13T11:03:07.773Z,16.63
2022-10-13T11:06:00.729Z,16.54
2022-10-13T11:08:39.510Z,16.48
2022-10-13T11:11:37.544Z,16.51
2022-10-13T11:14:25.395Z,16.47
2022-10-13T11:17:19.432Z,16.35
2022-10-13T11:19:49.009Z,16.32
2022-10-13T11:22:20.877Z,16.30
2022-10-13T11:24:59.881Z,16.25
2022-10-13T11:27:44.891Z,16.26
2022-10-13T11:30:41.774Z,16.23
2022-10-13T11:33:41.661Z,16.18
2022-10-13T11:36:32.507Z,16.12
2022-10-13T11:39:15.437Z,16.08
2022-10-13T11:41:53.990Z,15.98
2022-10-13T11:44:32.332Z,15.89
2022-10-13T11:47:11.802Z,15.87
2022-10-13T11:50:07.728Z,15.92
2022-10-13T11:52:54.256Z,16.00
2022-10-13T11:55:33.259Z,16.03
2022-10-13T11:58:16.092Z,16.04
2022-10-13T12:00:56.795Z,16.06
2022-10-13T12:03:29.155Z,16.12
2022-10-13T12:06:00.909Z,16.16
2022-10-13T12:08:30.804Z,16.15
2022-10-13T12:11:02.542Z,16.13
2022-10-13T12:13:33.266Z,16.11
2022-10-13T12:16:05.547Z,15.91
2022-10-13T12:18:37.666Z,15.79
2022-10-13T12:21:11.878Z,15.78
2022-10-13T12:23:41.769Z,15.76
2022-10-13T12:26:25.195Z,15.74
2022-10-13T12:28:57.356Z,15.66
2022-10-13T12:35:58.239Z,15.45
2022-10-13T12:38:27.065Z,15.42
2022-10-13T12:40:55.936Z,15.42
2022-10-13T12:43:26.461Z,15.39
2022-10-13T12:45:55.427Z,15.37
2022-10-13T12:48:34.666Z,15.34
2022-10-13T12:51:16.905Z,15.28
2022-10-13T12:53:46.530Z,15.25
2022-10-13T12:56:30.634Z,15.20
2022-10-13T12:59:00.190Z,15.13
2022-10-13T13:01:32.090Z,15.05
2022-10-13T13:04:14.951Z,15.00
2022-10-13T13:06:53.917Z,14.96
2022-10-13T13:09:28.908Z,14.94
2022-10-13T13:12:23.131Z,14.93
2022-10-13T13:14:54.316Z,14.92
2022-10-13T13:20:25.538Z,14.96
2022-10-13T13:22:54.844Z,14.96
2022-10-13T13:25:23.982Z,14.94
2022-10-13T13:27:53.060Z,14.95
2022-10-13T13:30:23.738Z,15.00
2022-10-13T13:32:52.806Z,15.03
2022-10-13T13:35:21.645Z,15.05
2022-10-13T13:37:52.411Z,15.12
2022-10-13T13:40:23.242Z,15.17
2022-10-13T13:42:52.186Z,15.16
2022-10-13T13:45:23.360Z,15.11
2022-10-13T13:47:54.927Z,15.05
2022-10-13T13:50:32.010Z,15.02
2022-10-13T13:53:01.114Z,14.97
2022-10-13T13:55:30.402Z,14.95
2022-10-13T13:57:59.272Z,14.96
2022-10-13T14:00:28.574Z,14.98
2022-10-13T14:02:57.890Z,15.00
2022-10-13T14:05:26.815Z,15.00
2022-10-13T14:07:57.233Z,14.99
2022-10-13T14:10:26.556Z,15.01
2022-10-13T14:12:55.300Z,15.05
2022-10-13T14:15:28.828Z,15.01
2022-10-13T14:17:58.613Z,14.92
2022-10-13T14:20:27.288Z,14.84
2022-10-13T14:22:55.926Z,14.77
2022-10-13T14:25:24.838Z,14.75
2022-10-13T14:27:53.403Z,14.76
2022-10-13T14:30:22.030Z,14.73
2022-10-13T14:32:50.976Z,14.66
2022-10-13T14:35:19.937Z,14.62
2022-10-13T14:37:49.369Z,14.57
2022-10-13T14:40:18.269Z,14.52
2022-10-13T14:42:46.920Z,14.48
2022-10-13T14:45:17.846Z,14.45
2022-10-13T14:47:46.450Z,14.42
2022-10-13T14:50:15.345Z,14.36
2022-10-13T14:52:45.665Z,14.29
2022-10-13T14:55:14.458Z,14.22
2022-10-13T14:57:45.748Z,14.18
2022-10-13T15:00:16.930Z,14.15
2022-10-13T15:02:45.837Z,14.12
2022-10-13T15:05:14.747Z,14.08
2022-10-13T15:07:43.624Z,14.04
2022-10-13T15:10:12.208Z,13.99
2022-10-13T15:12:40.790Z,13.92
2022-10-13T15:15:11.312Z,13.86
2022-10-13T15:17:40.003Z,13.81
2022-10-13T15:20:11.047Z,13.75
2022-10-13T15:22:39.728Z,13.70
2022-10-13T15:25:11.296Z,13.63
2022-10-13T15:27:42.026Z,13.58
2022-10-13T15:30:12.463Z,13.51
2022-10-13T15:32:41.139Z,13.45
2022-10-13T15:35:10.038Z,13.40
2022-10-13T15:37:42.387Z,13.33
2022-10-13T15:40:13.123Z,13.26
2022-10-13T15:42:41.803Z,13.21
2022-10-13T15:45:11.939Z,13.15
2022-10-13T15:47:41.237Z,13.09
2022-10-13T15:50:10.798Z,13.05
2022-10-13T15:52:40.551Z,13.00
2022-10-13T15:55:10.728Z,12.95
2022-10-13T15:57:39.378Z,12.92
2022-10-13T16:00:11.975Z,12.87
2022-10-13T16:02:43.951Z,12.83
2022-10-13T16:05:13.681Z,12.79
2022-10-13T16:07:42.391Z,12.75
2022-10-13T16:10:13.229Z,12.70
2022-10-13T16:12:48.338Z,12.66
2022-10-13T16:15:19.474Z,12.62
2022-10-13T16:17:48.139Z,12.59
2022-10-13T16:20:17.125Z,12.56
2022-10-13T16:22:46.594Z,12.53
2022-10-13T16:25:15.487Z,12.50
2022-10-13T16:27:44.831Z,12.46
2022-10-13T16:30:14.055Z,12.42
2022-10-13T16:32:42.781Z,12.38
2022-10-13T16:35:11.617Z,12.35
2022-10-13T16:37:40.544Z,12.31
2022-10-13T16:40:11.177Z,12.28
2022-10-13T16:42:41.279Z,12.26
2022-10-13T16:45:10.799Z,12.22
2022-10-13T16:47:39.505Z,12.19
2022-10-13T16:50:09.937Z,12.16
2022-10-13T16:52:38.726Z,12.13
2022-10-13T16:55:09.717Z,12.09
2022-10-13T16:57:38.400Z,12.06
2022-10-13T17:00:09.870Z,12.03
2022-10-13T17:02:38.530Z,12.02
2022-10-13T17:05:07.834Z,12.00
2022-10-13T17:07:37.544Z,11.98
2022-10-13T17:10:08.161Z,11.95
2022-10-13T17:12:36.891Z,11.94
2022-10-13T17:15:06.932Z,11.92
2022-10-13T17:17:35.676Z,11.90
2022-10-13T17:20:05.419Z,11.88
2022-10-13T17:22:35.032Z,11.85
2022-10-13T17:25:03.937Z,11.82
2022-10-13T17:27:35.541Z,11.80
2022-10-13T17:30:05.442Z,11.77
2022-10-13T17:32:38.206Z,11.75
2022-10-13T17:35:13.650Z,11.73
2022-10-13T17:37:42.299Z,11.69
2022-10-13T17:40:14.347Z,11.67
2022-10-13T17:42:42.959Z,11.64
2022-10-13T17:45:12.069Z,11.61
2022-10-13T17:47:46.686Z,11.58
2022-10-13T17:50:16.403Z,11.56
2022-10-13T17:52:45.356Z,11.54
2022-10-13T17:55:14.441Z,11.50
2022-10-13T17:57:43.103Z,11.47
2022-10-13T18:00:15.308Z,11.45
2022-10-13T18:02:46.600Z,11.41
2022-10-13T18:05:15.915Z,11.38
2022-10-13T18:07:44.570Z,11.36
2022-10-13T18:10:14.744Z,11.33
2022-10-13T18:12:43.650Z,11.28
2022-10-13T18:15:12.309Z,11.24
2022-10-13T18:17:40.884Z,11.20
2022-10-13T18:20:11.487Z,11.16
2022-10-13T18:22:40.105Z,11.13
2022-10-13T18:25:10.023Z,11.09
2022-10-13T18:27:38.715Z,11.05
2022-10-13T18:30:10.035Z,11.01
2022-10-13T18:32:38.769Z,10.98
2022-10-13T18:35:09.304Z,10.95
2022-10-13T18:37:37.925Z,10.91
2022-10-13T18:40:09.272Z,10.89
2022-10-13T18:42:37.984Z,10.87
2022-10-13T18:45:09.090Z,10.85
2022-10-13T18:47:37.782Z,10.83
2022-10-13T18:50:08.665Z,10.80
2022-10-13T18:52:38.280Z,10.77
2022-10-13T18:55:08.670Z,10.75
2022-10-13T18:57:37.548Z,10.73
2022-10-13T19:00:09.730Z,10.70
2022-10-13T19:02:38.600Z,10.69
2022-10-13T19:05:08.301Z,10.68
2022-10-13T19:07:39.191Z,10.67
2022-10-13T19:10:09.868Z,10.67
2022-10-13T19:12:38.533Z,10.65
2022-10-13T19:15:09.244Z,10.64
2022-10-13T19:17:37.905Z,10.62
2022-10-13T19:20:08.345Z,10.60
2022-10-13T19:22:37.174Z,10.60
2022-10-13T19:25:07.999Z,10.58
2022-10-13T19:27:36.861Z,10.56
2022-10-13T19:30:07.675Z,10.54
2022-10-13T19:32:39.354Z,10.53
2022-10-13T19:35:08.617Z,10.51
2022-10-13T19:37:38.644Z,10.49
2022-10-13T19:40:08.879Z,10.47
2022-10-13T19:42:37.857Z,10.45
2022-10-13T19:45:09.111Z,10.44
2022-10-13T19:47:38.139Z,10.40
2022-10-13T19:50:07.821Z,10.38
2022-10-13T19:52:36.693Z,10.36
2022-10-13T19:55:07.050Z,10.34
2022-10-13T19:57:36.442Z,10.31
2022-10-13T20:00:07.157Z,10.29
2022-10-13T20:02:41.167Z,10.26
2022-10-13T20:05:10.073Z,10.23
2022-10-13T20:07:38.650Z,10.21
2022-10-13T20:10:08.282Z,10.18
2022-10-13T20:12:39.273Z,10.15
2022-10-13T20:15:08.491Z,10.12
2022-10-13T20:17:37.187Z,10.09
2022-10-13T20:20:07.888Z,10.05
2022-10-13T20:22:38.949Z,10.02
2022-10-13T20:25:10.560Z,9.98
2022-10-13T20:27:39.145Z,9.94
2022-10-13T20:30:12.568Z,9.91
2022-10-13T20:32:41.180Z,9.87
2022-10-13T20:35:10.317Z,9.85
2022-10-13T20:37:39.109Z,9.82
2022-10-13T20:40:09.684Z,9.79
2022-10-13T20:42:38.622Z,9.76
2022-10-13T20:45:09.870Z,9.72
2022-10-13T20:47:39.518Z,9.68
2022-10-13T20:50:09.765Z,9.64
2022-10-13T20:52:39.192Z,9.60
2022-10-13T20:55:09.149Z,9.57
2022-10-13T20:57:38.833Z,9.53
2022-10-13T21:00:10.094Z,9.49
2022-10-13T21:02:38.785Z,9.45
2022-10-13T21:05:08.144Z,9.42
2022-10-13T21:07:37.090Z,9.37
2022-10-13T21:10:07.394Z,9.34
2022-10-13T21:12:36.083Z,9.28
2022-10-13T21:15:06.809Z,9.24
2022-10-13T21:17:39.394Z,9.20
2022-10-13T21:20:11.811Z,9.16
2022-10-13T21:22:41.926Z,9.11
2022-10-13T21:25:12.394Z,9.06
2022-10-13T21:27:41.377Z,9.02
2022-10-13T21:30:11.961Z,8.99
2022-10-13T21:32:40.595Z,8.95
2022-10-13T21:35:10.433Z,8.93
2022-10-13T21:37:39.243Z,8.89
2022-10-13T21:40:10.652Z,8.86
2022-10-13T21:42:39.513Z,8.83
2022-10-13T21:45:10.984Z,8.80
2022-10-13T21:47:39.778Z,8.78
2022-10-13T21:50:10.651Z,8.76
2022-10-13T21:52:39.293Z,8.73
2022-10-13T21:55:09.344Z,8.70
2022-10-13T21:57:37.985Z,8.67
2022-10-13T22:00:10.898Z,8.63
2022-10-13T22:02:41.267Z,8.59
2022-10-13T22:05:12.299Z,8.55
2022-10-13T22:07:40.855Z,8.52
2022-10-13T22:10:10.175Z,8.47
2022-10-13T22:12:38.818Z,8.43
2022-10-13T22:15:09.427Z,8.40
2022-10-13T22:17:38.084Z,8.37
2022-10-13T22:20:09.137Z,8.33
2022-10-13T22:22:37.893Z,8.30
2022-10-13T22:25:08.752Z,8.27
2022-10-13T22:27:37.720Z,8.25
2022-10-13T22:30:09.084Z,8.23
2022-10-13T22:32:37.695Z,8.20
2022-10-13T22:35:07.958Z,8.17
2022-10-13T22:37:36.618Z,8.15
2022-10-13T22:40:08.097Z,8.13
2022-10-13T22:42:36.695Z,8.10
2022-10-13T22:45:07.485Z,8.08
2022-10-13T22:47:36.387Z,8.05
2022-10-13T22:50:06.000Z,8.02
2022-10-13T22:52:34.573Z,8.01
2022-10-13T22:55:03.327Z,7.98
2022-10-13T22:57:33.330Z,7.96
2022-10-13T23:00:02.331Z,7.94
2022-10-13T23:02:31.884Z,7.92
2022-10-13T23:05:00.592Z,7.89
2022-10-13T23:07:30.623Z,7.87
2022-10-13T23:09:59.554Z,7.85
2022-10-13T23:12:28.261Z,7.83
2022-10-13T23:14:57.863Z,7.82
2022-10-13T23:17:27.157Z,7.81
2022-10-13T23:19:57.351Z,7.79
2022-10-13T23:22:27.211Z,7.79
2022-10-13T23:24:58.193Z,7.79
2022-10-13T23:27:27.756Z,7.79
2022-10-13T23:29:56.637Z,7.79
2022-10-13T23:32:26.961Z,7.79
2022-10-13T23:34:55.583Z,7.80
2022-10-13T23:37:25.417Z,7.80
2022-10-13T23:39:54.695Z,7.80
2022-10-13T23:42:23.482Z,7.81
2022-10-13T23:44:52.548Z,7.82
2022-10-13T23:47:21.592Z,7.83
2022-10-13T23:49:50.593Z,7.85
2022-10-13T23:52:20.052Z,7.86
2022-10-13T23:54:48.611Z,7.87
2022-10-13T23:57:17.284Z,7.88
2022-10-13T23:59:49.213Z,7.91
